createdAt,value
2019-01-24T00:00:22.837Z,984.94
2019-01-24T00:01:32.893Z,985.02
2019-01-24T00:02:42.962Z,984.99
2019-01-24T00:03:53.018Z,985.05
2019-01-24T00:05:03.232Z,985.02
2019-01-24T00:06:13.024Z,985.02
2019-01-24T00:07:23.056Z,985.02
2019-01-24T00:08:33.107Z,985.06
2019-01-24T00:09:43.205Z,985.02
2019-01-24T00:10:53.325Z,985.07
2019-01-24T00:12:04.681Z,985.11
2019-01-24T00:13:14.796Z,985.16
2019-01-24T00:14:24.854Z,985.1
2019-01-24T00:15:34.938Z,985.13
2019-01-24T00:16:45.021Z,985.12
2019-01-24T00:17:55.068Z,985.07
2019-01-24T00:19:05.123Z,985.1
2019-01-24T00:20:14.658Z,985.12
2019-01-24T00:21:24.742Z,985.15
2019-01-24T00:22:34.834Z,985.11
2019-01-24T00:23:44.890Z,985.08
2019-01-24T00:24:54.702Z,985.06
2019-01-24T00:26:05.148Z,985.07
2019-01-24T00:27:15.220Z,985.1
2019-01-24T00:28:25.250Z,985.17
2019-01-24T00:29:35.299Z,985.16
2019-01-24T00:30:45.089Z,985.12
2019-01-24T00:31:54.633Z,985.12
2019-01-24T00:33:06.464Z,985.11
2019-01-24T00:34:16.270Z,985.12
2019-01-24T00:35:30.845Z,985.2
2019-01-24T00:36:40.625Z,985.19
2019-01-24T00:37:50.670Z,985.22
2019-01-24T00:39:03.517Z,985.22
2019-01-24T00:40:13.054Z,985.22
2019-01-24T00:41:23.090Z,985.24
2019-01-24T00:42:33.132Z,985.28
2019-01-24T00:43:43.177Z,985.3
2019-01-24T00:44:53.236Z,985.29
2019-01-24T00:46:04.231Z,985.3
2019-01-24T00:47:14.265Z,985.31
2019-01-24T00:48:23.790Z,985.32
2019-01-24T00:49:33.866Z,985.32
2019-01-24T00:50:43.909Z,985.4
2019-01-24T00:51:53.981Z,985.36
2019-01-24T00:53:03.516Z,985.4
2019-01-24T00:54:13.398Z,985.42
2019-01-24T00:55:23.454Z,985.47
2019-01-24T00:56:33.232Z,985.42
2019-01-24T00:57:43.377Z,985.42
2019-01-24T00:58:53.458Z,985.46
2019-01-24T01:00:03.578Z,985.53
2019-01-24T01:01:14.174Z,985.45
2019-01-24T01:02:23.966Z,985.53
2019-01-24T01:03:34.085Z,985.59
2019-01-24T01:04:43.869Z,985.57
2019-01-24T01:05:53.925Z,985.58
2019-01-24T01:07:03.710Z,985.62
2019-01-24T01:08:13.523Z,985.61
2019-01-24T01:09:23.577Z,985.63
2019-01-24T01:10:33.642Z,985.68
2019-01-24T01:11:43.684Z,985.69
2019-01-24T01:12:53.731Z,985.71
2019-01-24T01:14:03.769Z,985.71
2019-01-24T01:15:13.544Z,985.73
2019-01-24T01:16:23.591Z,985.75
2019-01-24T01:17:33.374Z,985.77
2019-01-24T01:18:43.170Z,985.85
2019-01-24T01:19:53.212Z,985.81
2019-01-24T01:21:04.282Z,985.79
2019-01-24T01:22:14.324Z,985.76
2019-01-24T01:23:24.309Z,985.78
2019-01-24T01:24:35.573Z,985.82
2019-01-24T01:25:45.606Z,985.79
2019-01-24T01:26:55.692Z,985.8
2019-01-24T01:28:06.322Z,985.78
2019-01-24T01:29:16.375Z,985.76
2019-01-24T01:30:26.205Z,985.75
2019-01-24T01:31:36.264Z,985.72
2019-01-24T01:32:46.303Z,985.72
2019-01-24T01:33:56.340Z,985.72
2019-01-24T01:35:06.124Z,985.68
2019-01-24T01:36:15.915Z,985.7
2019-01-24T01:37:25.992Z,985.65
2019-01-24T01:38:36.055Z,985.68
2019-01-24T01:39:46.101Z,985.66
2019-01-24T01:40:55.889Z,985.68
2019-01-24T01:42:05.672Z,985.69
2019-01-24T01:43:15.455Z,985.74
2019-01-24T01:44:25.581Z,985.71
2019-01-24T01:45:35.358Z,985.69
2019-01-24T01:46:45.136Z,985.73
2019-01-24T01:47:54.656Z,985.74
2019-01-24T01:49:04.715Z,985.77
2019-01-24T01:50:14.794Z,985.77
2019-01-24T01:51:24.582Z,985.78
2019-01-24T01:52:34.614Z,985.8
2019-01-24T01:53:44.720Z,985.81
2019-01-24T01:54:54.753Z,985.77
2019-01-24T01:56:04.893Z,985.8
2019-01-24T01:57:14.680Z,985.76
2019-01-24T01:58:24.715Z,985.76
2019-01-24T01:59:34.749Z,985.76
2019-01-24T02:00:44.531Z,985.75
2019-01-24T02:01:54.582Z,985.76
2019-01-24T02:03:04.964Z,985.79
2019-01-24T02:04:14.761Z,985.79
2019-01-24T02:05:24.804Z,985.76
2019-01-24T02:06:34.841Z,985.8
2019-01-24T02:07:44.878Z,985.79
2019-01-24T02:08:54.667Z,985.76
2019-01-24T02:10:04.444Z,985.76
2019-01-24T02:11:14.277Z,985.76
2019-01-24T02:12:24.336Z,985.81
2019-01-24T02:13:34.365Z,985.8
2019-01-24T02:14:44.409Z,985.82
2019-01-24T02:15:54.454Z,985.87
2019-01-24T02:17:04.530Z,985.86
2019-01-24T02:18:14.572Z,985.88
2019-01-24T02:19:24.618Z,985.84
2019-01-24T02:20:34.677Z,985.81
2019-01-24T02:21:44.712Z,985.81
2019-01-24T02:22:54.772Z,985.8
2019-01-24T02:24:04.815Z,985.79
2019-01-24T02:25:14.852Z,985.82
2019-01-24T02:26:24.909Z,985.81
2019-01-24T02:27:34.949Z,985.83
2019-01-24T02:28:44.809Z,985.81
2019-01-24T02:29:54.594Z,985.81
2019-01-24T02:31:04.643Z,985.83
2019-01-24T02:32:14.682Z,985.83
2019-01-24T02:33:24.714Z,985.81
2019-01-24T02:34:34.524Z,985.82
2019-01-24T02:35:50.152Z,985.82
2019-01-24T02:36:59.939Z,985.74
2019-01-24T02:38:09.713Z,985.77
2019-01-24T02:39:19.763Z,985.77
2019-01-24T02:40:29.812Z,985.79
2019-01-24T02:41:39.860Z,985.8
2019-01-24T02:42:49.395Z,985.78
2019-01-24T02:43:59.464Z,985.81
2019-01-24T02:45:09.492Z,985.82
2019-01-24T02:46:19.631Z,985.79
2019-01-24T02:47:29.408Z,985.82
2019-01-24T02:48:39.189Z,985.82
2019-01-24T02:49:49.238Z,985.85
2019-01-24T02:50:59.063Z,985.84
2019-01-24T02:52:08.923Z,985.86
2019-01-24T02:53:18.987Z,985.85
2019-01-24T02:54:28.510Z,985.87
2019-01-24T02:55:38.053Z,985.83
2019-01-24T02:56:48.097Z,985.83
2019-01-24T02:57:57.774Z,985.83
2019-01-24T02:59:07.926Z,985.82
2019-01-24T03:00:18.030Z,985.84
2019-01-24T03:01:28.073Z,985.85
2019-01-24T03:02:37.613Z,985.88
2019-01-24T03:34:55.057Z,986.09
2019-01-24T03:36:11.484Z,986.12
2019-01-24T03:37:21.310Z,986.11
2019-01-24T03:38:31.339Z,986.11
2019-01-24T03:39:41.388Z,986.1
2019-01-24T03:40:51.482Z,986.15
2019-01-24T03:42:03.760Z,986.15
2019-01-24T03:43:13.781Z,986.23
2019-01-24T03:44:23.816Z,986.22
2019-01-24T03:45:33.608Z,986.27
2019-01-24T03:46:43.379Z,986.27
2019-01-24T03:47:53.443Z,986.25
2019-01-24T03:49:03.235Z,986.24
2019-01-24T03:50:14.876Z,986.26
2019-01-24T03:51:24.672Z,986.27
2019-01-24T03:52:34.472Z,986.23
2019-01-24T03:53:44.509Z,986.26
2019-01-24T03:54:54.547Z,986.27
2019-01-24T03:56:04.331Z,986.27
2019-01-24T03:57:14.358Z,986.25
2019-01-24T03:58:24.390Z,986.25
2019-01-24T03:59:34.484Z,986.31
2019-01-24T04:00:44.526Z,986.32
2019-01-24T04:01:54.582Z,986.31
2019-01-24T04:03:04.110Z,986.33
2019-01-24T04:04:13.382Z,986.35
2019-01-24T04:05:23.158Z,986.34
2019-01-24T04:06:33.232Z,986.34
2019-01-24T04:07:43.296Z,986.33
2019-01-24T04:08:53.422Z,986.36
2019-01-24T04:10:06.328Z,986.36
2019-01-24T04:11:16.122Z,986.39
2019-01-24T04:12:26.174Z,986.39
2019-01-24T04:13:35.972Z,986.38
2019-01-24T04:14:46.015Z,986.38
2019-01-24T04:15:55.591Z,986.41
2019-01-24T04:17:05.372Z,986.38
2019-01-24T04:18:15.420Z,986.42
2019-01-24T04:19:25.210Z,986.44
2019-01-24T04:20:35.265Z,986.43
2019-01-24T04:21:45.332Z,986.46
2019-01-24T04:22:55.112Z,986.45
2019-01-24T04:24:05.180Z,986.49
2019-01-24T04:25:15.213Z,986.47
2019-01-24T04:26:25.258Z,986.52
2019-01-24T04:27:35.145Z,986.52
2019-01-24T04:28:45.227Z,986.55
2019-01-24T04:29:55.280Z,986.5
2019-01-24T04:31:08.680Z,986.48
2019-01-24T04:32:18.744Z,986.56
2019-01-24T04:33:28.788Z,986.57
2019-01-24T04:34:38.571Z,986.57
2019-01-24T04:35:48.612Z,986.58
2019-01-24T04:36:58.410Z,986.58
2019-01-24T04:38:09.190Z,986.56
2019-01-24T04:39:19.280Z,986.52
2019-01-24T04:40:29.118Z,986.62
2019-01-24T04:41:38.920Z,986.57
2019-01-24T04:42:48.698Z,986.6
2019-01-24T04:43:58.494Z,986.57
2019-01-24T04:45:08.654Z,986.64
2019-01-24T04:46:18.712Z,986.64
2019-01-24T04:47:28.771Z,986.58
2019-01-24T04:48:38.817Z,986.68
2019-01-24T04:49:48.876Z,986.64
2019-01-24T04:50:58.921Z,986.7
2019-01-24T04:52:08.971Z,986.69
2019-01-24T04:53:18.497Z,986.73
2019-01-24T04:54:28.542Z,986.75
2019-01-24T04:55:38.331Z,986.77
2019-01-24T04:56:48.383Z,986.86
2019-01-24T04:57:58.439Z,986.84
2019-01-24T04:59:10.775Z,986.83
2019-01-24T05:00:20.767Z,986.84
2019-01-24T05:01:30.602Z,986.88
2019-01-24T05:02:40.650Z,986.85
2019-01-24T05:03:50.701Z,986.92
2019-01-24T05:05:00.784Z,986.93
2019-01-24T05:06:10.822Z,986.95
2019-01-24T05:07:20.873Z,986.99
2019-01-24T05:08:30.929Z,987.05
2019-01-24T05:09:40.964Z,987.02
2019-01-24T05:10:51.033Z,987.01
2019-01-24T05:12:01.109Z,987.04
2019-01-24T05:13:11.183Z,987.03
2019-01-24T05:14:21.284Z,987.01
2019-01-24T05:15:31.097Z,987.03
2019-01-24T05:16:41.155Z,987.1
2019-01-24T05:17:50.742Z,987.1
2019-01-24T05:19:01.090Z,987.12
2019-01-24T05:20:10.913Z,987.1
2019-01-24T05:21:20.689Z,987.16
2019-01-24T05:22:30.782Z,987.11
2019-01-24T05:23:40.833Z,987.08
2019-01-24T05:24:50.885Z,987.11
2019-01-24T05:26:01.447Z,987.1
2019-01-24T05:27:11.478Z,987.1
2019-01-24T05:28:21.270Z,987.12
2019-01-24T05:29:31.328Z,987.16
2019-01-24T05:30:41.382Z,987.14
2019-01-24T05:31:51.219Z,987.22
2019-01-24T05:33:02.964Z,987.19
2019-01-24T05:34:13.020Z,987.2
2019-01-24T05:35:23.085Z,987.24
2019-01-24T05:36:39.926Z,987.32
2019-01-24T05:37:50.011Z,987.31
2019-01-24T05:38:59.790Z,987.37
2019-01-24T05:40:09.576Z,987.35
2019-01-24T05:41:19.692Z,987.44
2019-01-24T05:42:29.772Z,987.44
2019-01-24T05:43:39.928Z,987.45
2019-01-24T05:44:49.980Z,987.43
2019-01-24T05:45:59.782Z,987.42
2019-01-24T05:47:09.821Z,987.45
2019-01-24T05:48:19.873Z,987.49
2019-01-24T05:49:29.994Z,987.49
2019-01-24T05:50:40.050Z,987.49
2019-01-24T05:51:49.848Z,987.49
2019-01-24T05:52:59.941Z,987.55
2019-01-24T05:54:10.005Z,987.56
2019-01-24T05:55:20.110Z,987.56
2019-01-24T05:56:29.918Z,987.57
2019-01-24T05:57:39.739Z,987.56
2019-01-24T05:58:49.812Z,987.61
2019-01-24T05:59:59.599Z,987.63
2019-01-24T06:01:09.991Z,987.64
2019-01-24T06:02:19.777Z,987.64
2019-01-24T06:03:29.647Z,987.67
2019-01-24T06:04:39.711Z,987.72
2019-01-24T06:05:49.757Z,987.7
2019-01-24T06:06:59.812Z,987.75
2019-01-24T06:08:11.381Z,987.73
2019-01-24T06:09:21.289Z,987.71
2019-01-24T06:10:31.348Z,987.68
2019-01-24T06:11:40.898Z,987.69
2019-01-24T06:12:50.992Z,987.65
2019-01-24T06:14:01.035Z,987.63
2019-01-24T06:15:11.097Z,987.71
2019-01-24T06:16:21.148Z,987.75
2019-01-24T06:17:31.180Z,987.73
2019-01-24T06:18:40.967Z,987.76
2019-01-24T06:19:51.025Z,987.84
2019-01-24T06:21:01.099Z,987.8
2019-01-24T06:22:10.948Z,987.83
2019-01-24T06:23:20.778Z,987.82
2019-01-24T06:24:30.640Z,987.85
2019-01-24T06:25:40.682Z,987.83
2019-01-24T06:26:50.477Z,987.85
2019-01-24T06:28:01.132Z,987.86
2019-01-24T06:29:10.916Z,987.89
2019-01-24T06:30:21.213Z,987.9
2019-01-24T06:31:31.091Z,987.93
2019-01-24T06:32:41.131Z,987.94
2019-01-24T06:33:51.187Z,987.95
2019-01-24T06:35:01.244Z,987.92
2019-01-24T06:36:11.322Z,987.92
2019-01-24T06:37:21.379Z,987.96
2019-01-24T06:38:31.217Z,987.89
2019-01-24T06:39:41.256Z,987.92
2019-01-24T06:40:51.297Z,987.91
2019-01-24T06:42:02.481Z,987.93
2019-01-24T06:43:12.508Z,987.93
2019-01-24T06:44:22.284Z,987.96
2019-01-24T06:45:32.320Z,988.02
2019-01-24T06:46:42.356Z,987.99
2019-01-24T06:47:52.386Z,987.98
2019-01-24T06:49:02.433Z,988.04
2019-01-24T06:50:11.964Z,988.06
2019-01-24T06:51:22.017Z,988.13
2019-01-24T06:52:32.056Z,988.18
2019-01-24T06:53:41.628Z,988.23
2019-01-24T06:54:51.675Z,988.28
2019-01-24T06:56:01.225Z,988.24
2019-01-24T06:57:11.008Z,988.27
2019-01-24T06:58:21.060Z,988.29
2019-01-24T06:59:31.105Z,988.33
2019-01-24T07:00:41.721Z,988.36
2019-01-24T07:01:51.766Z,988.44
2019-01-24T07:03:01.817Z,988.49
2019-01-24T07:04:11.845Z,988.53
2019-01-24T07:05:21.884Z,988.55
2019-01-24T07:06:31.946Z,988.54
2019-01-24T07:07:41.973Z,988.52
2019-01-24T07:08:51.499Z,988.58
2019-01-24T07:10:01.281Z,988.59
2019-01-24T07:11:11.064Z,988.59
2019-01-24T07:12:21.108Z,988.58
2019-01-24T07:13:31.179Z,988.63
2019-01-24T07:14:40.703Z,988.71
2019-01-24T07:15:50.214Z,988.64
2019-01-24T07:17:00.248Z,988.67
2019-01-24T07:18:10.038Z,988.66
2019-01-24T07:19:19.825Z,988.6
2019-01-24T07:20:29.602Z,988.61
2019-01-24T07:21:39.703Z,988.61
2019-01-24T07:22:49.740Z,988.66
2019-01-24T07:23:59.791Z,988.65
2019-01-24T07:25:09.576Z,988.68
2019-01-24T07:26:19.354Z,988.69
2019-01-24T07:27:29.392Z,988.71
2019-01-24T07:28:39.443Z,988.7
2019-01-24T07:29:49.539Z,988.68
2019-01-24T07:30:59.593Z,988.67
2019-01-24T07:32:09.710Z,988.7
2019-01-24T07:33:19.730Z,988.69
2019-01-24T07:34:29.781Z,988.76
2019-01-24T07:35:39.619Z,988.71
2019-01-24T07:36:49.676Z,988.69
2019-01-24T07:37:59.733Z,988.67
2019-01-24T07:39:09.778Z,988.62
2019-01-24T07:40:19.559Z,988.7
2019-01-24T07:41:29.601Z,988.63
2019-01-24T07:42:39.405Z,988.65
2019-01-24T07:43:49.600Z,988.66
2019-01-24T07:44:59.386Z,988.7
2019-01-24T07:46:09.494Z,988.72
2019-01-24T07:47:19.288Z,988.71
2019-01-24T07:48:29.326Z,988.72
2019-01-24T07:49:39.379Z,988.77
2019-01-24T07:50:49.416Z,988.78
2019-01-24T07:51:59.456Z,988.72
2019-01-24T07:53:09.540Z,988.73
2019-01-24T07:54:19.595Z,988.78
2019-01-24T07:55:29.647Z,988.77
2019-01-24T07:56:39.680Z,988.82
2019-01-24T07:57:49.721Z,988.87
2019-01-24T07:58:59.783Z,988.86
2019-01-24T08:00:11.180Z,988.94
2019-01-24T08:01:22.802Z,988.94
2019-01-24T08:02:32.622Z,988.92
2019-01-24T08:03:42.661Z,988.9
2019-01-24T08:04:52.689Z,988.89
2019-01-24T08:06:08.823Z,988.89
2019-01-24T08:07:19.150Z,988.96
2019-01-24T08:08:28.674Z,988.97
2019-01-24T08:09:38.694Z,988.98
2019-01-24T08:10:48.035Z,988.98
2019-01-24T08:11:57.899Z,988.97
2019-01-24T08:13:07.953Z,988.95
2019-01-24T08:14:17.750Z,988.92
2019-01-24T08:15:27.543Z,988.92
2019-01-24T08:16:37.646Z,988.93
2019-01-24T08:17:47.680Z,988.99
2019-01-24T08:18:57.727Z,988.92
2019-01-24T08:20:07.260Z,988.94
2019-01-24T08:21:17.296Z,988.93
2019-01-24T08:22:26.826Z,988.93
2019-01-24T08:23:36.864Z,989
2019-01-24T08:24:46.891Z,988.98
2019-01-24T08:25:56.917Z,988.95
2019-01-24T08:27:06.814Z,989.04
2019-01-24T08:28:16.869Z,989.11
2019-01-24T08:29:26.902Z,989.12
2019-01-24T08:30:36.964Z,989.14
2019-01-24T08:31:46.775Z,989.15
2019-01-24T08:32:56.833Z,989.17
2019-01-24T08:34:06.990Z,989.13
2019-01-24T08:35:17.034Z,989.14
2019-01-24T08:36:27.079Z,989.17
2019-01-24T08:37:37.144Z,989.17
2019-01-24T08:38:47.177Z,989.19
2019-01-24T08:39:57.207Z,989.23
2019-01-24T08:41:07.392Z,989.23
2019-01-24T08:42:17.445Z,989.25
2019-01-24T08:43:27.226Z,989.21
2019-01-24T08:44:37.271Z,989.26
2019-01-24T08:45:47.137Z,989.28
2019-01-24T08:46:56.929Z,989.29
2019-01-24T08:48:08.002Z,989.27
2019-01-24T08:49:17.798Z,989.28
2019-01-24T08:50:27.575Z,989.27
2019-01-24T08:51:37.603Z,989.24
2019-01-24T08:52:46.872Z,989.33
2019-01-24T08:53:56.905Z,989.24
2019-01-24T08:55:06.695Z,989.35
2019-01-24T08:56:16.748Z,989.35
2019-01-24T08:57:26.584Z,989.32
2019-01-24T08:58:36.635Z,989.36
2019-01-24T08:59:46.417Z,989.29
2019-01-24T09:00:56.477Z,989.37
2019-01-24T09:02:06.552Z,989.34
2019-01-24T09:03:16.412Z,989.37
2019-01-24T09:04:26.462Z,989.37
2019-01-24T09:05:36.501Z,989.41
2019-01-24T09:06:46.286Z,989.4
2019-01-24T09:07:56.337Z,989.46
2019-01-24T09:09:08.531Z,989.42
2019-01-24T09:10:18.316Z,989.39
2019-01-24T09:11:28.362Z,989.4
2019-01-24T09:12:38.177Z,989.39
2019-01-24T09:13:48.582Z,989.38
2019-01-24T09:14:58.668Z,989.3
2019-01-24T09:16:08.749Z,989.4
2019-01-24T09:17:18.800Z,989.36
2019-01-24T09:18:28.883Z,989.33
2019-01-24T09:19:38.938Z,989.36
2019-01-24T09:20:49.066Z,989.39
2019-01-24T09:21:59.832Z,989.36
2019-01-24T09:23:09.907Z,989.35
2019-01-24T09:24:20.238Z,989.35
2019-01-24T09:25:30.299Z,989.39
2019-01-24T09:26:40.427Z,989.39
2019-01-24T09:27:50.073Z,989.38
2019-01-24T09:28:59.940Z,989.35
2019-01-24T09:30:11.502Z,989.33
2019-01-24T09:31:21.296Z,989.36
2019-01-24T09:32:31.409Z,989.4
2019-01-24T09:33:41.511Z,989.42
2019-01-24T09:34:51.580Z,989.41
2019-01-24T09:36:01.676Z,989.47
2019-01-24T09:37:11.732Z,989.48
2019-01-24T09:38:21.780Z,989.41
2019-01-24T09:39:31.809Z,989.47
2019-01-24T09:40:41.856Z,989.46
2019-01-24T09:41:51.930Z,989.46
2019-01-24T09:43:03.619Z,989.48
2019-01-24T09:44:13.727Z,989.53
2019-01-24T09:45:23.779Z,989.56
2019-01-24T09:46:33.834Z,989.56
2019-01-24T09:47:43.900Z,989.58
2019-01-24T09:48:53.987Z,989.58
2019-01-24T09:50:05.760Z,989.62
2019-01-24T09:51:15.844Z,989.62
2019-01-24T09:52:25.647Z,989.61
2019-01-24T09:53:35.775Z,989.63
2019-01-24T09:54:45.322Z,989.68
2019-01-24T09:55:55.487Z,989.64
2019-01-24T09:57:05.285Z,989.55
2019-01-24T09:58:15.124Z,989.69
2019-01-24T09:59:24.984Z,989.71
2019-01-24T10:00:35.056Z,989.72
2019-01-24T10:01:44.899Z,989.71
2019-01-24T10:02:54.694Z,989.69
2019-01-24T10:04:04.752Z,989.7
2019-01-24T10:05:15.014Z,989.63
2019-01-24T10:06:24.819Z,989.63
2019-01-24T10:07:41.455Z,989.67
2019-01-24T10:08:50.990Z,989.64
2019-01-24T10:10:04.064Z,989.62
2019-01-24T10:11:14.114Z,989.62
2019-01-24T10:12:28.778Z,989.62
2019-01-24T10:13:38.919Z,989.62
2019-01-24T10:14:48.951Z,989.61
2019-01-24T10:15:58.764Z,989.62
2019-01-24T10:17:08.813Z,989.59
2019-01-24T10:18:21.663Z,989.61
2019-01-24T10:19:31.655Z,989.64
2019-01-24T10:20:41.199Z,989.61
2019-01-24T10:21:51.270Z,989.7
2019-01-24T10:23:01.390Z,989.65
2019-01-24T10:24:11.441Z,989.63
2019-01-24T10:25:21.593Z,989.62
2019-01-24T10:26:31.653Z,989.61
2019-01-24T10:27:41.970Z,989.59
2019-01-24T10:28:52.053Z,989.49
2019-01-24T10:30:03.899Z,989.53
2019-01-24T10:31:14.036Z,989.51
2019-01-24T10:32:24.094Z,989.49
2019-01-24T10:33:34.434Z,989.5
2019-01-24T10:34:44.497Z,989.51
2019-01-24T10:35:54.285Z,989.5
2019-01-24T10:37:04.352Z,989.55
2019-01-24T10:38:14.136Z,989.56
2019-01-24T10:39:24.186Z,989.52
2019-01-24T10:40:34.083Z,989.57
2019-01-24T10:41:44.188Z,989.52
2019-01-24T10:42:54.322Z,989.56
2019-01-24T10:44:04.389Z,989.6
2019-01-24T10:45:14.440Z,989.57
2019-01-24T10:46:24.532Z,989.57
2019-01-24T10:47:34.596Z,989.59
2019-01-24T10:48:44.753Z,989.6
2019-01-24T10:49:54.813Z,989.6
2019-01-24T10:51:04.609Z,989.58
2019-01-24T10:52:14.669Z,989.59
2019-01-24T10:53:24.731Z,989.64
2019-01-24T10:54:34.776Z,989.62
2019-01-24T10:55:45.528Z,989.64
2019-01-24T10:56:55.657Z,989.59
2019-01-24T10:58:05.896Z,989.56
2019-01-24T10:59:15.950Z,989.58
2019-01-24T11:00:26.006Z,989.57
2019-01-24T11:03:00.788Z,989.58
2019-01-24T11:04:10.574Z,989.6
2019-01-24T11:05:20.633Z,989.55
2019-01-24T11:06:30.698Z,989.61
2019-01-24T11:07:40.869Z,989.6
2019-01-24T11:08:51.469Z,989.61
2019-01-24T11:10:04.128Z,989.58
2019-01-24T11:11:15.513Z,989.61
2019-01-24T11:12:25.613Z,989.63
2019-01-24T11:13:35.678Z,989.56
2019-01-24T11:14:45.252Z,989.5
2019-01-24T11:15:55.330Z,989.57
2019-01-24T11:17:06.347Z,989.54
2019-01-24T11:18:16.407Z,989.59
2019-01-24T11:19:26.517Z,989.48
2019-01-24T11:20:36.348Z,989.53
2019-01-24T11:21:46.645Z,989.59
2019-01-24T11:22:56.753Z,989.54
2019-01-24T11:24:06.618Z,989.53
2019-01-24T11:25:16.670Z,989.6
2019-01-24T11:26:26.753Z,989.54
2019-01-24T11:27:36.880Z,989.58
2019-01-24T11:28:46.952Z,989.61
2019-01-24T11:29:56.517Z,989.53
2019-01-24T11:31:07.735Z,989.54
2019-01-24T11:32:17.797Z,989.53
2019-01-24T11:33:27.932Z,989.57
2019-01-24T11:34:37.992Z,989.52
2019-01-24T11:35:47.802Z,989.55
2019-01-24T11:36:57.893Z,989.54
2019-01-24T11:38:09.273Z,989.56
2019-01-24T11:39:19.066Z,989.49
2019-01-24T11:40:29.109Z,989.51
2019-01-24T11:41:39.176Z,989.5
2019-01-24T11:42:49.228Z,989.5
2019-01-24T11:43:59.294Z,989.5
2019-01-24T11:45:09.370Z,989.47
2019-01-24T11:46:19.456Z,989.48
2019-01-24T11:47:29.505Z,989.49
2019-01-24T11:48:39.296Z,989.48
2019-01-24T11:49:49.407Z,989.48
2019-01-24T11:50:59.189Z,989.52
2019-01-24T11:53:33.938Z,989.46
2019-01-24T11:54:43.729Z,989.39
2019-01-24T11:55:53.526Z,989.42
2019-01-24T11:57:04.139Z,989.41
2019-01-24T11:58:14.040Z,989.41
2019-01-24T11:59:24.096Z,989.48
2019-01-24T12:00:33.947Z,989.51
2019-01-24T12:01:44.017Z,989.43
2019-01-24T12:02:54.371Z,989.43
2019-01-24T12:04:04.761Z,989.43
2019-01-24T12:05:14.816Z,989.42
2019-01-24T12:06:24.619Z,989.44
2019-01-24T12:07:34.566Z,989.37
2019-01-24T12:08:44.666Z,989.43
2019-01-24T12:09:54.483Z,989.4
2019-01-24T12:11:04.567Z,989.41
2019-01-24T12:12:14.638Z,989.41
2019-01-24T12:13:24.755Z,989.34
2019-01-24T12:14:34.829Z,989.41
2019-01-24T12:15:45.640Z,989.4
2019-01-24T12:16:55.714Z,989.41
2019-01-24T12:18:07.761Z,989.36
2019-01-24T12:19:17.823Z,989.38
2019-01-24T12:20:27.644Z,989.41
2019-01-24T12:21:37.434Z,989.33
2019-01-24T12:22:47.539Z,989.32
2019-01-24T12:23:57.594Z,989.3
2019-01-24T12:25:07.634Z,989.35
2019-01-24T12:26:17.682Z,989.28
2019-01-24T12:27:27.719Z,989.27
2019-01-24T12:28:37.551Z,989.21
2019-01-24T12:29:47.622Z,989.29
2019-01-24T12:30:57.664Z,989.29
2019-01-24T12:32:07.771Z,989.31
2019-01-24T12:33:17.586Z,989.34
2019-01-24T12:34:27.697Z,989.29
2019-01-24T12:35:37.745Z,989.3
2019-01-24T12:36:47.808Z,989.33
2019-01-24T12:37:57.869Z,989.3
2019-01-24T12:39:08.020Z,989.23
2019-01-24T12:40:17.820Z,989.29
2019-01-24T12:41:27.640Z,989.22
2019-01-24T12:42:37.697Z,989.28
2019-01-24T12:43:47.907Z,989.19
2019-01-24T12:44:57.961Z,989.26
2019-01-24T12:46:09.101Z,989.28
2019-01-24T12:47:19.135Z,989.29
2019-01-24T12:48:29.179Z,989.34
2019-01-24T12:49:39.298Z,989.28
2019-01-24T12:50:49.351Z,989.29
2019-01-24T12:51:59.395Z,989.34
2019-01-24T12:53:09.438Z,989.44
2019-01-24T12:54:19.482Z,989.28
2019-01-24T12:55:29.565Z,989.24
2019-01-24T12:56:39.364Z,989.3
2019-01-24T12:57:49.415Z,989.32
2019-01-24T12:58:59.466Z,989.35
2019-01-24T13:00:09.449Z,989.3
2019-01-24T13:01:19.853Z,989.35
2019-01-24T13:02:29.894Z,989.37
2019-01-24T13:03:39.987Z,989.37
2019-01-24T13:04:50.079Z,989.29
2019-01-24T13:06:02.427Z,989.36
2019-01-24T13:07:18.360Z,989.41
2019-01-24T13:08:28.609Z,989.4
2019-01-24T13:09:38.694Z,989.41
2019-01-24T13:10:48.813Z,989.4
2019-01-24T13:11:58.862Z,989.47
2019-01-24T13:13:09.733Z,989.45
2019-01-24T13:14:19.780Z,989.45
2019-01-24T13:15:29.972Z,989.36
2019-01-24T13:16:40.855Z,989.41
2019-01-24T13:17:50.976Z,989.39
2019-01-24T13:19:00.873Z,989.38
2019-01-24T13:20:10.689Z,989.37
2019-01-24T13:21:20.539Z,989.39
2019-01-24T13:22:30.593Z,989.31
2019-01-24T13:23:40.676Z,989.29
2019-01-24T13:24:51.036Z,989.3
2019-01-24T13:26:03.226Z,989.34
2019-01-24T13:27:13.594Z,989.32
2019-01-24T13:28:23.679Z,989.37
2019-01-24T13:29:33.748Z,989.27
2019-01-24T13:30:43.810Z,989.23
2019-01-24T13:31:53.620Z,989.3
2019-01-24T13:33:04.685Z,989.33
2019-01-24T13:34:15.706Z,989.45
2019-01-24T13:35:25.523Z,989.43
2019-01-24T13:36:35.640Z,989.45
2019-01-24T13:37:45.721Z,989.43
2019-01-24T13:38:55.563Z,989.48
2019-01-24T13:40:05.736Z,989.51
2019-01-24T13:41:15.838Z,989.57
2019-01-24T13:42:25.670Z,989.5
2019-01-24T13:43:35.471Z,989.54
2019-01-24T13:44:45.256Z,989.55
2019-01-24T13:45:55.259Z,989.54
2019-01-24T13:47:05.103Z,989.53
2019-01-24T13:48:14.903Z,989.53
2019-01-24T13:49:24.958Z,989.56
2019-01-24T13:50:35.020Z,989.54
2019-01-24T13:51:44.573Z,989.59
2019-01-24T13:52:54.640Z,989.57
2019-01-24T13:54:04.726Z,989.62
2019-01-24T13:55:14.392Z,989.66
2019-01-24T13:56:24.183Z,989.68
2019-01-24T13:57:33.750Z,989.61
2019-01-24T13:58:43.884Z,989.65
2019-01-24T13:59:54.407Z,989.65
2019-01-24T14:01:07.030Z,989.64
2019-01-24T14:02:16.830Z,989.67
2019-01-24T14:03:26.880Z,989.56
2019-01-24T14:04:42.719Z,989.64
2019-01-24T14:05:52.797Z,989.58
2019-01-24T14:07:02.956Z,989.56
2019-01-24T14:08:13.000Z,989.55
2019-01-24T14:09:23.056Z,989.6
2019-01-24T14:10:33.165Z,989.59
2019-01-24T14:11:43.507Z,989.59
2019-01-24T14:12:53.338Z,989.6
2019-01-24T14:14:03.632Z,989.63
2019-01-24T14:15:13.436Z,989.66
2019-01-24T14:16:23.473Z,989.68
2019-01-24T14:17:33.601Z,989.66
2019-01-24T14:18:43.670Z,989.71
2019-01-24T14:19:53.481Z,989.66
2019-01-24T14:21:03.539Z,989.7
2019-01-24T14:22:13.690Z,989.7
2019-01-24T14:23:23.767Z,989.78
2019-01-24T14:24:33.830Z,989.76
2019-01-24T14:25:43.885Z,989.77
2019-01-24T14:26:53.925Z,989.79
2019-01-24T14:28:03.783Z,989.75
2019-01-24T14:29:13.851Z,989.77
2019-01-24T14:30:23.956Z,989.79
2019-01-24T14:31:34.028Z,989.84
2019-01-24T14:32:44.096Z,989.78
2019-01-24T14:33:54.205Z,989.77
2019-01-24T14:35:04.247Z,989.78
2019-01-24T14:36:14.145Z,989.77
2019-01-24T14:37:30.261Z,989.82
2019-01-24T14:38:44.910Z,989.74
2019-01-24T14:39:55.154Z,989.78
2019-01-24T14:41:06.234Z,989.68
2019-01-24T14:42:16.036Z,989.64
2019-01-24T14:43:26.098Z,989.65
2019-01-24T14:44:36.002Z,989.65
2019-01-24T14:45:46.049Z,989.66
2019-01-24T14:46:56.118Z,989.69
2019-01-24T14:48:06.226Z,989.66
2019-01-24T14:49:16.038Z,989.62
2019-01-24T14:50:27.306Z,989.67
2019-01-24T14:51:37.105Z,989.64
2019-01-24T14:52:47.155Z,989.67
2019-01-24T14:53:57.233Z,989.64
2019-01-24T14:55:07.296Z,989.67
2019-01-24T14:56:17.108Z,989.67
2019-01-24T14:57:27.179Z,989.7
2019-01-24T14:58:36.976Z,989.73
2019-01-24T14:59:47.037Z,989.77
2019-01-24T15:00:57.113Z,989.78
2019-01-24T15:02:07.466Z,989.82
2019-01-24T15:03:17.537Z,989.78
2019-01-24T15:04:27.589Z,989.79
2019-01-24T15:05:37.668Z,989.81
2019-01-24T15:06:47.743Z,989.81
2019-01-24T15:07:57.780Z,989.8
2019-01-24T15:09:10.753Z,989.81
2019-01-24T15:10:20.600Z,989.85
2019-01-24T15:11:30.929Z,989.79